Time;durP1;ratioP1;P1;durP2;ratioP2;P2;SDS_P1;SDS_P2;PMS_P1;PMS_P2;Temp;Humidity;BMP_temperature;BMP_pressure;BME280_temperature;BME280_humidity;BME280_pressure;Samples;Min_cycle;Max_cycle;Signal;HPM_P1;HPM_P2
2021/09/01 00:00:55;;;;;;;10.18;9.00;;;12.90;1.00;;;;;;5073821;28;20141;-79
2021/09/01 00:03:20;;;;;;;15.18;10.70;;;12.80;1.00;;;;;;5073822;28;20021;-80
2021/09/01 00:05:47;;;;;;;10.07;9.07;;;12.80;1.00;;;;;;5077923;28;20024;-75
2021/09/01 00:08:13;;;;;;;13.48;9.43;;;12.80;1.00;;;;;;5079302;28;20021;-80
2021/09/01 00:10:38;;;;;;;13.07;9.20;;;12.80;1.00;;;;;;5077964;28;20480;-76
2021/09/01 00:13:07;;;;;;;10.70;9.70;;;12.80;1.00;;;;;;5081062;28;20369;-77
2021/09/01 00:15:33;;;;;;;13.02;9.73;;;12.70;1.00;;;;;;5081228;28;20020;-78
2021/09/01 00:17:59;;;;;;;12.32;9.57;;;12.70;1.00;;;;;;5081592;28;20024;-78
2021/09/01 00:20:26;;;;;;;12.63;10.60;;;12.70;1.00;;;;;;5075511;28;20024;-76
2021/09/01 00:22:52;;;;;;;11.35;9.63;;;12.70;1.00;;;;;;5055924;28;20032;-78
2021/09/01 00:25:18;;;;;;;10.85;9.85;;;12.70;1.00;;;;;;5053724;28;20171;-77
2021/09/01 00:27:43;;;;;;;13.95;9.68;;;12.70;1.00;;;;;;5052803;28;20060;-76
2021/09/01 00:30:09;;;;;;;11.25;10.15;;;12.70;1.00;;;;;;5053571;28;20064;-78
2021/09/01 00:32:35;;;;;;;10.30;9.35;;;12.60;1.00;;;;;;5053849;28;20025;-78
2021/09/01 00:35:00;;;;;;;11.57;9.88;;;12.60;1.00;;;;;;5052526;28;20028;-78
2021/09/01 00:37:26;;;;;;;11.05;9.07;;;12.60;1.00;;;;;;5053933;28;20033;-78
2021/09/01 00:39:51;;;;;;;10.93;9.68;;;12.60;1.00;;;;;;5053561;28;20072;-79
2021/09/01 00:42:17;;;;;;;10.75;9.38;;;12.60;1.00;;;;;;5053790;28;20013;-79
2021/09/01 00:44:45;;;;;;;12.02;10.52;;;12.50;1.00;;;;;;5053033;28;20043;-78
2021/09/01 00:47:14;;;;;;;11.98;9.90;;;12.50;1.00;;;;;;5053058;28;20433;-79
2021/09/01 00:49:40;;;;;;;10.82;9.02;;;12.50;1.00;;;;;;5054075;28;20086;-79
2021/09/01 00:52:05;;;;;;;10.93;9.82;;;12.50;1.00;;;;;;5052353;28;20488;-78
2021/09/01 00:54:31;;;;;;;15.00;10.65;;;12.50;1.00;;;;;;5053548;28;20024;-79
2021/09/01 00:57:02;;;;;;;10.50;9.50;;;12.50;29.60;;;;;;5063768;28;20104;-78
2021/09/01 00:59:31;;;;;;;;;;;12.40;1.00;;;;;;5073644;28;20495;-78
2021/09/01 01:01:57;;;;;;;12.05;10.60;;;12.40;6.80;;;;;;5073275;28;19908;-79
2021/09/01 01:04:34;;;;;;;11.55;10.35;;;12.40;28.90;;;;;;5072290;28;20028;-79
2021/09/01 01:07:04;;;;;;;13.27;9.93;;;12.40;49.30;;;;;;5073139;28;20035;-77
2021/09/01 01:09:31;;;;;;;11.03;9.87;;;12.40;50.00;;;;;;5073399;28;20025;-77
2021/09/01 01:12:00;;;;;;;10.68;9.57;;;12.40;49.10;;;;;;5072264;28;20024;-76
2021/09/01 01:14:26;;;;;;;12.77;10.32;;;12.40;32.60;;;;;;5073284;28;20043;-78
2021/09/01 01:16:52;;;;;;;12.65;9.70;;;12.40;35.70;;;;;;5074758;28;20021;-77
2021/09/01 01:19:20;;;;;;;11.02;10.02;;;12.40;55.00;;;;;;5072909;28;20024;-77
2021/09/01 01:21:46;;;;;;;12.48;10.10;;;12.40;41.00;;;;;;5074427;28;20384;-77
2021/09/01 01:24:11;;;;;;;14.77;9.40;;;12.40;79.20;;;;;;5074467;28;20025;-78
2021/09/01 01:26:37;;;;;;;11.27;10.18;;;12.40;99.90;;;;;;5071903;28;20031;-77
2021/09/01 01:29:07;;;;;;;12.73;10.65;;;12.40;99.90;;;;;;5073239;28;20032;-76
2021/09/01 01:31:36;;;;;;;15.02;11.38;;;12.40;90.60;;;;;;5073923;28;20487;-78
2021/09/01 01:34:01;;;;;;;11.85;10.05;;;12.40;91.00;;;;;;5071586;28;20029;-76
2021/09/01 01:36:28;;;;;;;10.02;9.02;;;12.30;91.50;;;;;;5071899;28;20059;-77
2021/09/01 01:38:54;;;;;;;12.68;9.68;;;12.30;81.90;;;;;;5071953;28;20104;-77
2021/09/01 01:41:20;;;;;;;13.50;9.95;;;12.30;76.90;;;;;;5072664;28;20054;-77
2021/09/01 01:43:47;;;;;;;10.45;9.45;;;12.30;77.60;;;;;;5063774;28;20033;-77
2021/09/01 01:46:13;;;;;;;10.93;9.80;;;12.30;95.00;;;;;;5052661;28;20027;-78
2021/09/01 01:48:38;;;;;;;12.38;10.13;;;12.30;99.90;;;;;;5053608;28;20021;-77
2021/09/01 01:51:04;;;;;;;10.52;9.30;;;12.30;93.60;;;;;;5052237;28;20021;-77
2021/09/01 01:53:30;;;;;;;10.75;9.65;;;12.30;95.90;;;;;;5053429;28;20025;-76
2021/09/01 01:55:55;;;;;;;12.82;10.45;;;12.30;95.90;;;;;;5062661;28;20412;-77
2021/09/01 01:58:21;;;;;;;11.63;10.43;;;12.20;96.60;;;;;;5066079;28;20036;-77
2021/09/01 02:00:46;;;;;;;13.77;10.30;;;12.20;98.80;;;;;;5051122;28;20017;-77
2021/09/01 02:03:12;;;;;;;10.80;9.70;;;12.10;99.90;;;;;;5052717;28;20033;-77
2021/09/01 02:05:38;;;;;;;11.00;9.90;;;12.10;99.90;;;;;;5053502;28;20032;-77
2021/09/01 02:08:03;;;;;;;14.38;9.70;;;12.10;99.90;;;;;;5053174;28;20468;-77
2021/09/01 02:10:29;;;;;;;14.15;10.80;;;12.10;99.90;;;;;;5052014;28;20033;-78
2021/09/01 02:12:55;;;;;;;15.80;9.88;;;12.10;99.90;;;;;;5053840;28;20501;-77
2021/09/01 02:15:20;;;;;;;11.80;10.07;;;12.10;99.90;;;;;;5052684;28;20036;-77
2021/09/01 02:17:46;;;;;;;13.07;10.23;;;12.00;99.90;;;;;;5052644;28;20017;-77
2021/09/01 02:20:13;;;;;;;14.98;10.20;;;12.10;99.90;;;;;;5051346;28;20025;-77
2021/09/01 02:22:41;;;;;;;14.57;10.60;;;12.00;99.90;;;;;;5052353;28;20029;-77
2021/09/01 02:25:08;;;;;;;14.25;10.80;;;12.00;99.90;;;;;;5050737;28;20400;-77
2021/09/01 02:27:33;;;;;;;12.45;10.05;;;12.00;99.90;;;;;;5050931;28;20029;-77
2021/09/01 02:30:00;;;;;;;11.52;10.32;;;12.00;99.90;;;;;;5052028;28;20403;-77
2021/09/01 02:32:25;;;;;;;11.30;9.77;;;12.00;99.90;;;;;;5052096;28;20108;-77
2021/09/01 02:34:51;;;;;;;11.13;9.40;;;12.00;99.90;;;;;;5052888;28;20060;-77
2021/09/01 02:37:16;;;;;;;11.52;10.38;;;11.90;99.90;;;;;;5052719;28;20033;-77
2021/09/01 02:39:42;;;;;;;12.60;9.65;;;11.90;99.90;;;;;;5051854;28;20029;-77
2021/09/01 02:42:07;;;;;;;15.32;12.13;;;11.90;99.90;;;;;;5052723;28;20490;-77
2021/09/01 02:44:33;;;;;;;13.48;11.15;;;11.90;99.90;;;;;;5052318;28;20036;-76
2021/09/01 02:46:59;;;;;;;15.20;10.73;;;11.80;99.90;;;;;;5051817;28;20036;-76
2021/09/01 02:49:25;;;;;;;13.23;11.70;;;11.80;97.40;;;;;;5051652;28;20025;-77
2021/09/01 02:51:50;;;;;;;15.40;11.60;;;11.80;97.10;;;;;;5053934;28;20029;-77
2021/09/01 02:54:16;;;;;;;14.18;12.02;;;11.90;96.00;;;;;;5054119;28;20498;-78
2021/09/01 02:56:41;;;;;;;21.38;13.95;;;11.90;95.40;;;;;;5068324;28;20020;-78
2021/09/01 02:59:07;;;;;;;14.77;12.20;;;11.80;99.90;;;;;;5074915;28;20021;-78
2021/09/01 03:01:33;;;;;;;15.32;12.50;;;11.80;99.90;;;;;;5074826;28;20025;-77
2021/09/01 03:03:58;;;;;;;17.20;12.35;;;11.80;99.90;;;;;;5075100;28;20450;-77
2021/09/01 03:06:24;;;;;;;22.75;13.75;;;11.70;56.80;;;;;;5076978;28;20467;-77
2021/09/01 03:08:49;;;;;;;19.88;13.20;;;11.70;70.20;;;;;;5075762;28;20021;-77
2021/09/01 03:11:15;;;;;;;21.77;14.45;;;11.80;59.20;;;;;;5076118;28;20021;-77
2021/09/01 03:13:40;;;;;;;53.42;14.75;;;11.90;89.00;;;;;;5076648;28;20053;-78
2021/09/01 03:16:06;;;;;;;36.00;15.82;;;12.00;99.90;;;;;;5076551;28;20040;-78
2021/09/01 03:18:31;;;;;;;88.03;16.90;;;11.90;99.90;;;;;;5076455;28;20028;-78
2021/09/01 03:20:57;;;;;;;56.03;16.70;;;11.90;99.90;;;;;;5075450;28;20082;-77
2021/09/01 03:23:22;;;;;;;53.75;18.42;;;11.80;99.90;;;;;;5073971;28;20025;-80
2021/09/01 03:25:48;;;;;;;44.75;17.58;;;11.80;99.90;;;;;;5075282;28;20070;-77
2021/09/01 03:28:13;;;;;;;152.90;17.77;;;11.70;99.90;;;;;;5074551;28;20037;-77
2021/09/01 03:30:39;;;;;;;155.63;17.58;;;11.80;99.90;;;;;;5074921;28;20128;-77
2021/09/01 03:33:05;;;;;;;199.77;16.50;;;11.80;99.90;;;;;;5075683;28;20035;-76
2021/09/01 03:35:30;;;;;;;127.25;17.02;;;11.80;99.90;;;;;;5074152;28;20047;-76
2021/09/01 03:37:56;;;;;;;66.82;16.10;;;11.80;99.90;;;;;;5075357;28;20048;-78
2021/09/01 03:40:22;;;;;;;71.25;18.17;;;11.80;99.90;;;;;;5073671;28;20538;-76
2021/09/01 03:42:47;;;;;;;100.20;18.58;;;11.90;99.90;;;;;;5073481;28;20032;-76
2021/09/01 03:45:13;;;;;;;210.65;17.90;;;12.00;99.90;;;;;;5053620;28;20025;-77
2021/09/01 03:47:39;;;;;;;167.02;17.38;;;11.90;99.90;;;;;;5057007;28;20033;-78
2021/09/01 03:50:07;;;;;;;85.00;16.85;;;12.00;99.90;;;;;;5053321;28;20469;-77
2021/09/01 03:52:33;;;;;;;104.88;15.07;;;12.00;99.90;;;;;;5054562;28;20017;-77
2021/09/01 03:54:59;;;;;;;124.13;16.08;;;12.10;99.90;;;;;;5059584;28;20020;-79
2021/09/01 03:57:24;;;;;;;143.93;18.25;;;12.10;99.90;;;;;;5067061;28;20028;-79
2021/09/01 03:59:50;;;;;;;95.88;18.63;;;12.00;99.90;;;;;;5074910;28;20035;-77
2021/09/01 04:02:16;;;;;;;173.65;18.17;;;11.90;99.90;;;;;;5074226;28;20020;-76
2021/09/01 04:04:41;;;;;;;256.60;18.80;;;12.00;99.90;;;;;;5075431;28;20029;-77
2021/09/01 04:07:07;;;;;;;211.30;18.27;;;11.90;99.90;;;;;;5075222;28;20380;-77
2021/09/01 04:09:33;;;;;;;95.53;18.85;;;11.90;99.90;;;;;;5072774;28;20027;-78
2021/09/01 04:11:58;;;;;;;152.27;18.00;;;11.90;99.90;;;;;;5072907;28;20514;-78
2021/09/01 04:14:24;;;;;;;138.05;18.25;;;11.90;99.90;;;;;;5073003;28;20024;-78
2021/09/01 04:16:50;;;;;;;210.40;19.75;;;11.90;99.90;;;;;;5074543;28;20057;-77
2021/09/01 04:19:16;;;;;;;247.63;19.20;;;11.80;99.90;;;;;;5073335;28;20024;-77
2021/09/01 04:21:41;;;;;;;156.55;19.75;;;11.80;99.90;;;;;;5073276;28;20025;-77
2021/09/01 04:24:07;;;;;;;261.80;20.08;;;11.80;99.90;;;;;;5074308;28;20021;-77
2021/09/01 04:26:33;;;;;;;155.95;19.65;;;11.80;99.90;;;;;;5072966;28;20586;-77
2021/09/01 04:28:58;;;;;;;172.32;19.02;;;11.80;99.90;;;;;;5074156;28;20020;-77
2021/09/01 04:31:24;;;;;;;120.05;18.83;;;11.80;99.90;;;;;;5072926;28;20039;-77
2021/09/01 04:33:49;;;;;;;176.75;18.00;;;11.80;99.90;;;;;;5074307;28;20032;-77
2021/09/01 04:36:15;;;;;;;173.20;17.77;;;11.70;99.90;;;;;;5073260;28;20048;-76
2021/09/01 04:38:41;;;;;;;172.23;15.40;;;11.80;99.90;;;;;;5072857;28;20492;-76
2021/09/01 04:41:06;;;;;;;123.40;17.88;;;11.90;99.90;;;;;;5074015;28;20017;-77
2021/09/01 04:43:32;;;;;;;88.30;16.73;;;11.80;99.90;;;;;;5066163;28;20029;-77
2021/09/01 04:45:58;;;;;;;165.85;15.70;;;11.80;99.90;;;;;;5053846;28;20120;-77
2021/09/01 04:48:24;;;;;;;186.48;16.15;;;11.90;99.90;;;;;;5053194;28;20025;-77
2021/09/01 04:50:51;;;;;;;167.90;16.45;;;12.00;99.90;;;;;;5052454;28;20037;-78
2021/09/01 04:53:17;;;;;;;173.63;16.90;;;12.10;99.90;;;;;;5054387;28;20116;-77
2021/09/01 04:55:42;;;;;;;227.57;16.50;;;12.10;99.90;;;;;;5061548;28;20041;-78
2021/09/01 04:58:08;;;;;;;90.20;14.70;;;12.20;99.90;;;;;;5070811;28;20028;-78
2021/09/01 05:00:34;;;;;;;141.70;16.35;;;12.20;99.90;;;;;;5055086;28;20052;-77
2021/09/01 05:03:00;;;;;;;164.40;18.52;;;12.20;99.90;;;;;;5055251;28;20476;-77
2021/09/01 05:05:25;;;;;;;73.90;16.40;;;12.10;99.90;;;;;;5052955;28;20025;-76
2021/09/01 05:07:51;;;;;;;78.00;15.23;;;12.00;99.90;;;;;;5052058;28;20081;-77
2021/09/01 05:10:16;;;;;;;92.18;14.80;;;12.20;99.90;;;;;;5054264;28;20028;-77
2021/09/01 05:12:47;;;;;;;51.60;17.27;;;12.20;99.90;;;;;;5053782;28;20104;-77
2021/09/01 05:15:13;;;;;;;33.60;16.77;;;12.00;99.90;;;;;;5052963;28;20048;-78
2021/09/01 05:17:38;;;;;;;82.95;17.52;;;12.00;99.90;;;;;;5054162;28;20094;-77
2021/09/01 05:20:04;;;;;;;31.52;18.00;;;12.00;99.90;;;;;;5053333;28;20024;-77
2021/09/01 05:22:31;;;;;;;82.75;17.48;;;12.10;99.90;;;;;;5052602;28;20107;-77
2021/09/01 05:25:12;;;;;;;47.33;17.10;;;12.10;99.90;;;;;;5054602;28;20025;-77
2021/09/01 05:27:40;;;;;;;98.68;18.35;;;12.10;99.90;;;;;;5053895;28;20087;-78
2021/09/01 05:30:08;;;;;;;66.22;18.50;;;12.10;99.90;;;;;;5051833;28;20024;-77
2021/09/01 05:32:39;;;;;;;97.40;15.18;;;12.10;99.90;;;;;;5052275;28;20136;-78
2021/09/01 05:35:07;;;;;;;139.45;17.65;;;12.20;99.90;;;;;;5054033;28;20017;-77
2021/09/01 05:37:33;;;;;;;180.90;17.10;;;12.40;99.90;;;;;;5054049;28;20025;-77
2021/09/01 05:40:00;;;;;;;195.57;19.52;;;12.40;99.90;;;;;;5052359;28;20021;-77
2021/09/01 05:42:28;;;;;;;141.48;18.50;;;12.30;99.90;;;;;;5054723;28;20039;-77
2021/09/01 05:44:55;;;;;;;94.93;20.40;;;12.30;99.90;;;;;;5053314;28;20039;-77
2021/09/01 05:47:22;;;;;;;108.43;36.00;;;12.30;99.90;;;;;;5054503;28;20500;-76
2021/09/01 05:49:49;;;;;;;104.65;20.90;;;12.20;99.90;;;;;;5053573;28;20480;-78
2021/09/01 05:52:17;;;;;;;64.43;20.85;;;12.20;99.90;;;;;;5053310;28;20534;-77
2021/09/01 05:54:44;;;;;;;40.28;21.77;;;12.30;99.90;;;;;;5062555;28;20025;-77
2021/09/01 05:57:19;;;;;;;53.33;20.63;;;12.30;99.90;;;;;;5062670;28;20020;-77
2021/09/01 06:00:15;;;;;;;32.17;19.98;;;12.30;99.90;;;;;;5071673;28;20028;-78
2021/09/01 06:02:52;;;;;;;144.40;19.77;;;12.40;99.90;;;;;;5072368;28;20475;-77
2021/09/01 06:05:20;;;;;;;166.18;19.42;;;12.50;99.90;;;;;;5072701;28;20078;-77
2021/09/01 06:08:00;;;;;;;173.18;18.67;;;12.70;99.90;;;;;;5071034;28;20072;-78
2021/09/01 06:10:29;;;;;;;106.55;20.40;;;12.60;99.90;;;;;;5070980;28;20032;-77
2021/09/01 06:12:56;;;;;;;52.97;20.50;;;12.60;99.90;;;;;;5070966;28;20025;-78
2021/09/01 06:15:23;;;;;;;37.72;18.23;;;12.60;99.90;;;;;;5071873;28;20107;-77
2021/09/01 06:17:49;;;;;;;28.67;19.35;;;12.60;99.90;;;;;;5073351;28;20024;-78
2021/09/01 06:20:15;;;;;;;69.38;17.42;;;12.60;99.90;;;;;;5071893;28;20032;-78
2021/09/01 06:22:41;;;;;;;108.15;18.33;;;12.90;99.90;;;;;;5070816;28;20032;-77
2021/09/01 06:25:07;;;;;;;136.20;18.38;;;13.20;99.90;;;;;;5072062;28;20357;-78
2021/09/01 06:27:33;;;;;;;59.33;18.58;;;13.30;99.90;;;;;;5072109;28;20039;-77
2021/09/01 06:29:59;;;;;;;36.80;18.60;;;13.30;99.90;;;;;;5072221;28;20028;-77
2021/09/01 06:32:24;;;;;;;41.00;19.27;;;13.10;99.90;;;;;;5067622;28;20025;-75
2021/09/01 06:34:50;;;;;;;117.70;18.58;;;12.90;99.90;;;;;;5051241;28;20035;-77
2021/09/01 06:37:15;;;;;;;49.28;19.55;;;12.80;99.90;;;;;;5051778;28;20021;-77
2021/09/01 06:39:41;;;;;;;41.63;19.33;;;12.70;99.90;;;;;;5051748;28;20021;-75
2021/09/01 06:42:07;;;;;;;26.80;19.05;;;12.80;99.90;;;;;;5051807;28;20074;-75
2021/09/01 06:44:33;;;;;;;26.40;20.27;;;12.80;99.90;;;;;;5050307;28;20029;-75
2021/09/01 06:46:59;;;;;;;25.95;20.15;;;12.90;99.90;;;;;;5051607;28;20024;-76
2021/09/01 06:49:24;;;;;;;25.85;18.73;;;12.90;99.90;;;;;;5050521;28;20091;-75
2021/09/01 06:51:50;;;;;;;32.67;18.05;;;13.00;99.90;;;;;;5051807;28;20035;-76
2021/09/01 06:54:15;;;;;;;44.05;18.55;;;12.90;99.90;;;;;;5050926;28;20021;-76
2021/09/01 06:56:41;;;;;;;29.98;18.88;;;12.90;99.90;;;;;;5062989;28;20044;-76
2021/09/01 06:59:06;;;;;;;22.88;17.83;;;12.80;99.90;;;;;;5070587;28;20060;-75
2021/09/01 07:01:32;;;;;;;27.33;19.90;;;12.80;99.90;;;;;;5054075;28;20025;-77
2021/09/01 07:03:57;;;;;;;28.17;19.88;;;12.90;99.90;;;;;;5050688;28;20542;-77
2021/09/01 07:06:23;;;;;;;30.42;18.70;;;13.50;99.90;;;;;;5050937;28;20033;-78
2021/09/01 07:08:50;;;;;;;39.72;16.73;;;14.00;99.90;;;;;;5055998;28;20032;-76
2021/09/01 07:11:16;;;;;;;47.83;18.02;;;14.20;99.90;;;;;;5060425;28;20024;-76
2021/09/01 07:13:43;;;;;;;33.58;18.88;;;14.00;99.90;;;;;;5071653;28;20437;-77
2021/09/01 07:16:08;;;;;;;24.30;16.85;;;13.80;99.90;;;;;;5071868;28;20110;-76
2021/09/01 07:18:34;;;;;;;29.75;19.48;;;13.60;99.90;;;;;;5071765;28;20033;-76
2021/09/01 07:20:59;;;;;;;30.15;19.98;;;13.50;99.90;;;;;;5070483;28;20499;-77
2021/09/01 07:23:25;;;;;;;21.35;17.85;;;13.50;99.90;;;;;;5071757;28;20028;-76
2021/09/01 07:25:51;;;;;;;20.35;17.48;;;14.20;99.90;;;;;;5071877;28;20032;-76
2021/09/01 07:28:16;;;;;;;27.63;18.55;;;14.40;99.90;;;;;;5071392;28;20040;-76
2021/09/01 07:30:42;;;;;;;22.60;17.95;;;14.70;99.90;;;;;;5070048;28;20059;-77
2021/09/01 07:33:07;;;;;;;21.92;17.63;;;14.50;99.90;;;;;;5069708;28;20021;-76
2021/09/01 07:35:33;;;;;;;25.13;16.58;;;14.40;99.90;;;;;;5071071;28;20654;-77
2021/09/01 07:37:58;;;;;;;18.38;16.05;;;14.60;99.90;;;;;;5073037;28;20527;-75
2021/09/01 07:40:25;;;;;;;22.73;16.65;;;14.80;99.90;;;;;;5073522;28;20012;-76
2021/09/01 07:42:51;;;;;;;19.58;16.15;;;14.80;99.90;;;;;;5072891;28;20020;-75
2021/09/01 07:45:18;;;;;;;21.65;16.42;;;15.20;99.90;;;;;;5053559;28;20090;-76
2021/09/01 07:47:57;;;;;;;19.20;15.35;;;15.30;99.90;;;;;;5053407;28;20482;-76
2021/09/01 07:50:29;;;;;;;18.65;15.00;;;14.70;99.90;;;;;;5055169;28;20506;-76
2021/09/01 07:52:55;;;;;;;18.75;14.40;;;15.00;99.90;;;;;;5054832;28;20032;-77
2021/09/01 07:55:21;;;;;;;16.17;14.48;;;15.60;99.90;;;;;;5053505;28;20395;-76
2021/09/01 07:57:47;;;;;;;18.48;15.05;;;15.80;99.90;;;;;;5060509;28;20027;-77
2021/09/01 08:00:13;;;;;;;21.08;14.95;;;15.80;99.90;;;;;;5074584;28;20016;-76
2021/09/01 08:02:39;;;;;;;16.35;13.48;;;15.30;99.90;;;;;;5074654;28;20527;-77
2021/09/01 08:05:06;;;;;;;18.10;14.13;;;15.50;99.90;;;;;;5074841;28;20024;-76
2021/09/01 08:07:31;;;;;;;18.73;13.32;;;16.10;99.90;;;;;;5073248;28;20131;-76
2021/09/01 08:09:57;;;;;;;15.48;13.88;;;16.40;99.90;;;;;;5073357;28;20115;-77
2021/09/01 08:12:23;;;;;;;16.83;14.48;;;16.40;99.90;;;;;;5072888;28;20032;-76
2021/09/01 08:14:49;;;;;;;18.15;14.13;;;16.40;99.90;;;;;;5074621;28;20028;-77
2021/09/01 08:17:14;;;;;;;14.45;12.68;;;16.10;99.90;;;;;;5074751;28;20030;-77
2021/09/01 08:19:41;;;;;;;15.48;13.15;;;16.80;99.90;;;;;;5072708;28;20456;-76
2021/09/01 08:22:08;;;;;;;15.95;12.77;;;17.00;99.90;;;;;;5073176;28;20483;-77
2021/09/01 08:24:33;;;;;;;15.18;13.68;;;17.00;99.90;;;;;;5074507;28;20035;-77
2021/09/01 08:26:59;;;;;;;16.35;14.45;;;17.10;99.90;;;;;;5074529;28;20123;-77
2021/09/01 08:29:24;;;;;;;15.82;13.90;;;17.20;99.90;;;;;;5074025;28;20036;-77
2021/09/01 08:31:50;;;;;;;15.30;13.70;;;17.30;99.90;;;;;;5074333;28;20036;-76
2021/09/01 08:34:15;;;;;;;15.57;14.07;;;17.40;99.90;;;;;;5072858;28;20407;-77
2021/09/01 08:36:41;;;;;;;17.95;14.27;;;17.60;99.90;;;;;;5073396;28;20384;-77
2021/09/01 08:39:06;;;;;;;14.88;13.13;;;17.00;99.90;;;;;;5072888;28;20031;-77
2021/09/01 08:41:32;;;;;;;14.35;12.85;;;17.20;99.90;;;;;;5072957;28;20078;-77
2021/09/01 08:44:00;;;;;;;14.82;13.23;;;16.90;99.90;;;;;;5062522;28;20029;-76
2021/09/01 08:46:28;;;;;;;14.38;12.88;;;17.10;99.90;;;;;;5052174;28;20056;-76
2021/09/01 08:48:54;;;;;;;14.95;13.45;;;16.70;99.90;;;;;;5052976;28;20105;-77
2021/09/01 08:51:20;;;;;;;15.18;13.18;;;17.10;99.90;;;;;;5053832;28;20139;-76
2021/09/01 08:53:45;;;;;;;14.27;12.82;;;17.20;99.90;;;;;;5053465;28;20556;-76
2021/09/01 08:56:11;;;;;;;13.73;12.25;;;17.20;99.90;;;;;;5052222;28;20025;-76
2021/09/01 08:58:36;;;;;;;14.40;13.00;;;17.20;99.90;;;;;;5052934;28;20013;-76
2021/09/01 09:01:02;;;;;;;12.55;11.35;;;16.90;99.90;;;;;;5056960;28;20021;-77
2021/09/01 09:03:29;;;;;;;14.45;12.95;;;17.10;99.90;;;;;;5064928;28;20025;-77
2021/09/01 09:06:03;;;;;;;13.48;11.90;;;17.10;99.90;;;;;;5062888;28;20045;-76
2021/09/01 09:08:32;;;;;;;14.18;12.73;;;17.30;99.90;;;;;;5061455;28;20025;-77
2021/09/01 09:10:57;;;;;;;13.65;12.25;;;17.40;99.90;;;;;;5063135;28;20049;-77
2021/09/01 09:13:30;;;;;;;14.55;11.50;;;17.30;99.90;;;;;;5056064;28;20029;-77
2021/09/01 09:16:08;;;;;;;13.65;12.25;;;17.50;99.90;;;;;;5053463;28;20052;-76
2021/09/01 09:18:34;;;;;;;13.63;11.85;;;17.50;99.90;;;;;;5052108;28;20523;-77
2021/09/01 09:21:20;;;;;;;14.27;12.52;;;17.60;99.90;;;;;;5051546;28;20080;-76
2021/09/01 09:23:50;;;;;;;14.07;12.65;;;17.70;99.90;;;;;;5051760;28;20569;-77
2021/09/01 09:26:30;;;;;;;13.40;12.10;;;17.40;99.90;;;;;;5051576;28;20029;-76
2021/09/01 09:29:18;;;;;;;13.20;11.80;;;17.60;99.90;;;;;;5052903;28;20126;-76
2021/09/01 09:32:03;;;;;;;11.55;10.35;;;17.60;99.90;;;;;;5052880;28;20476;-77
2021/09/01 09:34:41;;;;;;;12.00;10.80;;;17.90;99.90;;;;;;5051886;28;20035;-77
2021/09/01 09:37:09;;;;;;;13.23;11.57;;;18.10;99.90;;;;;;5051632;28;20017;-77
2021/09/01 09:39:41;;;;;;;12.65;11.18;;;18.30;99.90;;;;;;5051567;28;20025;-77
2021/09/01 09:42:06;;;;;;;;;;;18.40;99.90;;;;;;5051698;28;20028;-76
2021/09/01 09:44:32;;;;;;;11.77;9.50;;;18.10;99.90;;;;;;5051302;28;19917;-77
2021/09/01 09:46:57;;;;;;;8.90;8.10;;;18.10;99.90;;;;;;5052502;28;20035;-77
2021/09/01 09:49:31;;;;;;;10.80;9.43;;;18.30;99.90;;;;;;5050699;28;20025;-76
2021/09/01 09:51:57;;;;;;;9.93;8.70;;;18.60;99.90;;;;;;5052454;28;20021;-76
2021/09/01 09:54:26;;;;;;;9.95;9.00;;;18.90;99.90;;;;;;5051231;28;20128;-76
2021/09/01 09:57:05;;;;;;;10.55;8.82;;;18.90;99.90;;;;;;5053038;28;20028;-76
2021/09/01 09:59:32;;;;;;;9.35;8.43;;;18.90;99.90;;;;;;5052802;28;20021;-78
2021/09/01 10:01:58;;;;;;;10.50;7.20;;;18.80;99.90;;;;;;5051015;28;20108;-77
2021/09/01 10:04:28;;;;;;;8.38;7.28;;;19.10;99.90;;;;;;5052359;28;20446;-77
2021/09/01 10:06:54;;;;;;;10.00;8.00;;;19.30;99.90;;;;;;5051141;28;20021;-77
2021/09/01 10:09:19;;;;;;;10.38;8.27;;;19.60;99.90;;;;;;5052253;28;20047;-77
2021/09/01 10:11:47;;;;;;;9.30;7.13;;;19.70;99.90;;;;;;5051934;28;20029;-76
2021/09/01 10:14:19;;;;;;;8.95;7.85;;;19.80;99.90;;;;;;5051224;28;20025;-77
2021/09/01 10:17:01;;;;;;;10.10;8.02;;;19.70;99.90;;;;;;5051631;28;20434;-76
2021/09/01 10:19:30;;;;;;;9.10;6.95;;;19.60;99.90;;;;;;5050662;28;20500;-77
2021/09/01 10:21:59;;;;;;;7.07;6.38;;;19.70;99.90;;;;;;5050585;28;20127;-77
2021/09/01 10:24:33;;;;;;;11.73;7.35;;;19.50;99.90;;;;;;5052291;28;20064;-79
2021/09/01 10:27:22;;;;;;;8.68;6.72;;;19.40;99.90;;;;;;5051086;28;20051;-77
2021/09/01 10:30:09;;;;;;;7.65;6.40;;;19.50;99.90;;;;;;5050684;28;20020;-76
2021/09/01 10:32:41;;;;;;;5.45;4.95;;;19.80;99.90;;;;;;5051886;28;20089;-77
2021/09/01 10:35:11;;;;;;;5.60;5.07;;;20.20;99.90;;;;;;5051795;28;20029;-77
2021/09/01 10:37:40;;;;;;;8.68;4.60;;;20.20;99.90;;;;;;5050571;28;20025;-77
2021/09/01 10:40:33;;;;;;;4.88;4.38;;;20.40;99.90;;;;;;5050252;28;20485;-77
2021/09/01 10:43:00;;;;;;;5.65;4.25;;;20.60;99.90;;;;;;5051522;28;20443;-77
2021/09/01 10:45:32;;;;;;;5.25;4.53;;;20.50;99.90;;;;;;5051644;28;20513;-77
2021/09/01 10:48:08;;;;;;;5.65;4.93;;;20.40;99.90;;;;;;5050706;28;20059;-77
2021/09/01 10:50:36;;;;;;;4.97;4.50;;;20.60;99.90;;;;;;5051041;28;20404;-78
2021/09/01 10:53:10;;;;;;;5.05;4.55;;;20.90;99.90;;;;;;5051751;28;20028;-77
2021/09/01 10:55:52;;;;;;;4.75;4.25;;;21.20;99.90;;;;;;5050649;28;20021;-76
2021/09/01 10:58:23;;;;;;;5.50;5.00;;;21.10;99.90;;;;;;5050504;28;20021;-77
2021/09/01 11:00:57;;;;;;;5.43;4.85;;;20.90;99.90;;;;;;5050519;28;20029;-78
2021/09/01 11:03:31;;;;;;;6.95;6.28;;;21.10;99.90;;;;;;5054627;28;20104;-77
2021/09/01 11:06:10;;;;;;;10.80;5.60;;;21.30;99.90;;;;;;5051811;28;20120;-77
2021/09/01 11:08:36;;;;;;;5.10;4.60;;;21.50;99.90;;;;;;5052156;28;20033;-76
2021/09/01 11:11:01;;;;;;;5.38;4.60;;;21.80;99.90;;;;;;5051875;28;20082;-75
2021/09/01 11:13:43;;;;;;;7.38;4.47;;;22.00;99.90;;;;;;5055892;28;20063;-76
2021/09/01 11:16:21;;;;;;;5.63;4.03;;;21.80;99.90;;;;;;5055724;28;20393;-76
2021/09/01 11:19:10;;;;;;;5.75;4.18;;;22.10;99.90;;;;;;5054274;28;20028;-77
2021/09/01 11:21:46;;;;;;;4.50;3.85;;;22.10;99.90;;;;;;5056126;28;20017;-77
2021/09/01 11:24:15;;;;;;;5.65;4.00;;;22.10;99.90;;;;;;5055613;28;20400;-77
2021/09/01 11:26:41;;;;;;;3.65;3.33;;;22.20;99.90;;;;;;5054298;28;20060;-76
2021/09/01 11:29:09;;;;;;;4.85;3.63;;;22.20;99.90;;;;;;5055362;28;20029;-77
2021/09/01 11:31:45;;;;;;;6.18;4.10;;;21.80;99.90;;;;;;5054152;28;20415;-76
2021/09/01 11:34:12;;;;;;;5.70;3.53;;;21.40;99.90;;;;;;5053900;28;20060;-77
2021/09/01 11:36:39;;;;;;;3.95;3.55;;;21.20;99.90;;;;;;5054258;28;20392;-77
2021/09/01 11:39:05;;;;;;;3.97;3.58;;;21.00;99.90;;;;;;5054983;28;20013;-77
2021/09/01 11:41:30;;;;;;;5.47;3.60;;;21.20;99.90;;;;;;5055356;28;20032;-76
2021/09/01 11:44:02;;;;;;;4.03;3.40;;;21.50;99.90;;;;;;5054893;28;20054;-77
2021/09/01 11:46:34;;;;;;;4.78;3.55;;;21.80;99.90;;;;;;5056261;28;20043;-77
2021/09/01 11:49:09;;;;;;;4.13;3.72;;;22.00;99.90;;;;;;5054004;28;20026;-78
2021/09/01 11:51:35;;;;;;;4.18;3.78;;;22.50;99.90;;;;;;5055440;28;20091;-79
2021/09/01 11:54:02;;;;;;;4.68;4.25;;;22.70;99.90;;;;;;5054077;28;20029;-77
2021/09/01 11:56:28;;;;;;;5.00;4.10;;;22.60;99.90;;;;;;5063349;28;20017;-77
2021/09/01 11:59:05;;;;;;;4.05;3.65;;;22.70;99.90;;;;;;5074340;28;20048;-77
2021/09/01 12:01:35;;;;;;;4.70;4.18;;;22.10;99.90;;;;;;5075200;28;20364;-77
2021/09/01 12:04:01;;;;;;;4.35;3.95;;;22.40;99.90;;;;;;5074889;28;20107;-76
2021/09/01 12:06:41;;;;;;;4.18;3.78;;;22.50;99.90;;;;;;5074346;28;20557;-77
2021/09/01 12:09:12;;;;;;;4.65;4.00;;;22.00;99.90;;;;;;5075036;28;20365;-77
2021/09/01 12:11:38;;;;;;;9.65;4.40;;;21.60;99.90;;;;;;5075013;28;20026;-78
2021/09/01 12:14:08;;;;;;;4.18;3.78;;;21.20;99.90;;;;;;5074411;28;20117;-77
2021/09/01 12:16:35;;;;;;;4.30;3.95;;;21.00;99.90;;;;;;5074172;28;20016;-76
2021/09/01 12:19:11;;;;;;;4.53;3.80;;;21.10;99.90;;;;;;5074956;28;20025;-77
2021/09/01 12:21:59;;;;;;;5.43;4.13;;;21.10;99.90;;;;;;5075103;28;20045;-78
2021/09/01 12:24:34;;;;;;;5.18;3.72;;;21.10;99.90;;;;;;5073063;28;20116;-78
2021/09/01 12:27:10;;;;;;;4.65;4.25;;;21.10;99.90;;;;;;5073831;28;20032;-77
2021/09/01 12:29:45;;;;;;;5.20;3.45;;;21.20;99.90;;;;;;5075041;28;20369;-77
2021/09/01 12:32:19;;;;;;;3.92;3.50;;;21.50;99.90;;;;;;5075102;28;20028;-76
2021/09/01 12:34:55;;;;;;;8.68;4.35;;;21.70;99.90;;;;;;5074604;28;20023;-76
2021/09/01 12:37:28;;;;;;;4.30;3.25;;;21.90;99.00;;;;;;5074956;28;20032;-78